sensor_id;sensor_type;location;lat;lon;timestamp;P1;durP1;ratioP1;P2;durP2;ratioP2
12880;SDS011;6508;53.786;9.996;2023-03-23T00:01:23;12.57;;;8.32;;
12880;SDS011;6508;53.786;9.996;2023-03-23T00:03:52;11.93;;;8.50;;
12880;SDS011;6508;53.786;9.996;2023-03-23T00:06:23;13.45;;;8.90;;
12880;SDS011;6508;53.786;9.996;2023-03-23T00:08:53;11.77;;;8.00;;
12880;SDS011;6508;53.786;9.996;2023-03-23T00:11:25;13.25;;;9.48;;
12880;SDS011;6508;53.786;9.996;2023-03-23T00:13:54;13.10;;;10.02;;
12880;SDS011;6508;53.786;9.996;2023-03-23T00:16:24;12.75;;;9.50;;
12880;SDS011;6508;53.786;9.996;2023-03-23T00:18:56;12.95;;;9.70;;
12880;SDS011;6508;53.786;9.996;2023-03-23T00:21:26;15.02;;;10.07;;
12880;SDS011;6508;53.786;9.996;2023-03-23T00:23:58;11.95;;;9.65;;
12880;SDS011;6508;53.786;9.996;2023-03-23T00:26:25;17.08;;;9.27;;
12880;SDS011;6508;53.786;9.996;2023-03-23T00:28:53;10.90;;;9.38;;
12880;SDS011;6508;53.786;9.996;2023-03-23T00:31:20;12.40;;;8.90;;
12880;SDS011;6508;53.786;9.996;2023-03-23T00:33:47;15.90;;;9.10;;
12880;SDS011;6508;53.786;9.996;2023-03-23T00:36:14;10.98;;;9.43;;
12880;SDS011;6508;53.786;9.996;2023-03-23T00:38:42;11.80;;;9.18;;
12880;SDS011;6508;53.786;9.996;2023-03-23T00:41:09;13.50;;;9.15;;
12880;SDS011;6508;53.786;9.996;2023-03-23T00:43:36;14.65;;;9.55;;
12880;SDS011;6508;53.786;9.996;2023-03-23T00:46:04;14.07;;;10.18;;
12880;SDS011;6508;53.786;9.996;2023-03-23T00:48:35;12.52;;;10.18;;
12880;SDS011;6508;53.786;9.996;2023-03-23T00:51:06;13.20;;;10.15;;
12880;SDS011;6508;53.786;9.996;2023-03-23T00:53:37;13.75;;;10.40;;
12880;SDS011;6508;53.786;9.996;2023-03-23T00:56:06;15.07;;;10.55;;
12880;SDS011;6508;53.786;9.996;2023-03-23T00:58:33;15.70;;;10.30;;
12880;SDS011;6508;53.786;9.996;2023-03-23T01:01:01;13.63;;;10.35;;
12880;SDS011;6508;53.786;9.996;2023-03-23T01:03:27;13.38;;;10.25;;
12880;SDS011;6508;53.786;9.996;2023-03-23T01:05:58;16.23;;;11.32;;
12880;SDS011;6508;53.786;9.996;2023-03-23T01:08:25;14.18;;;10.38;;
12880;SDS011;6508;53.786;9.996;2023-03-23T01:11:01;16.10;;;11.60;;
12880;SDS011;6508;53.786;9.996;2023-03-23T01:13:30;19.75;;;12.07;;
12880;SDS011;6508;53.786;9.996;2023-03-23T01:15:56;18.67;;;11.98;;
12880;SDS011;6508;53.786;9.996;2023-03-23T01:18:23;15.88;;;12.40;;
12880;SDS011;6508;53.786;9.996;2023-03-23T01:20:50;15.95;;;11.75;;
12880;SDS011;6508;53.786;9.996;2023-03-23T01:23:17;15.25;;;11.73;;
12880;SDS011;6508;53.786;9.996;2023-03-23T01:25:44;19.02;;;11.38;;
12880;SDS011;6508;53.786;9.996;2023-03-23T01:28:11;17.35;;;12.35;;
12880;SDS011;6508;53.786;9.996;2023-03-23T01:30:39;18.73;;;12.88;;
12880;SDS011;6508;53.786;9.996;2023-03-23T01:33:06;20.27;;;12.50;;
12880;SDS011;6508;53.786;9.996;2023-03-23T01:35:32;17.35;;;12.20;;
12880;SDS011;6508;53.786;9.996;2023-03-23T01:37:59;16.55;;;12.18;;
12880;SDS011;6508;53.786;9.996;2023-03-23T01:40:26;19.50;;;13.38;;
12880;SDS011;6508;53.786;9.996;2023-03-23T01:42:55;20.25;;;12.95;;
12880;SDS011;6508;53.786;9.996;2023-03-23T01:45:23;21.08;;;12.55;;
12880;SDS011;6508;53.786;9.996;2023-03-23T01:48:01;20.15;;;13.70;;
12880;SDS011;6508;53.786;9.996;2023-03-23T01:50:33;21.83;;;12.88;;
12880;SDS011;6508;53.786;9.996;2023-03-23T01:53:03;19.83;;;13.25;;
12880;SDS011;6508;53.786;9.996;2023-03-23T01:55:34;19.67;;;13.48;;
12880;SDS011;6508;53.786;9.996;2023-03-23T01:58:03;18.65;;;13.05;;
12880;SDS011;6508;53.786;9.996;2023-03-23T02:00:31;18.38;;;13.27;;
12880;SDS011;6508;53.786;9.996;2023-03-23T02:02:59;19.13;;;13.20;;
12880;SDS011;6508;53.786;9.996;2023-03-23T02:05:32;16.95;;;12.35;;
12880;SDS011;6508;53.786;9.996;2023-03-23T02:08:09;18.58;;;13.90;;
12880;SDS011;6508;53.786;9.996;2023-03-23T02:10:38;22.45;;;13.80;;
12880;SDS011;6508;53.786;9.996;2023-03-23T02:13:07;22.83;;;14.63;;
12880;SDS011;6508;53.786;9.996;2023-03-23T02:15:39;22.00;;;14.73;;
12880;SDS011;6508;53.786;9.996;2023-03-23T02:18:13;21.45;;;14.10;;
12880;SDS011;6508;53.786;9.996;2023-03-23T02:23:50;20.80;;;13.75;;
12880;SDS011;6508;53.786;9.996;2023-03-23T02:26:38;22.80;;;14.55;;
12880;SDS011;6508;53.786;9.996;2023-03-23T02:32:18;24.13;;;15.20;;
12880;SDS011;6508;53.786;9.996;2023-03-23T02:34:50;19.45;;;14.85;;
12880;SDS011;6508;53.786;9.996;2023-03-23T02:37:19;23.65;;;15.20;;
12880;SDS011;6508;53.786;9.996;2023-03-23T02:39:49;21.40;;;14.15;;
12880;SDS011;6508;53.786;9.996;2023-03-23T02:42:18;20.35;;;14.68;;
12880;SDS011;6508;53.786;9.996;2023-03-23T02:44:47;19.73;;;14.88;;
12880;SDS011;6508;53.786;9.996;2023-03-23T02:47:16;20.55;;;15.27;;
12880;SDS011;6508;53.786;9.996;2023-03-23T02:49:44;22.38;;;14.80;;
12880;SDS011;6508;53.786;9.996;2023-03-23T02:52:16;21.92;;;14.57;;
12880;SDS011;6508;53.786;9.996;2023-03-23T02:54:47;22.58;;;15.70;;
12880;SDS011;6508;53.786;9.996;2023-03-23T02:57:14;23.25;;;14.75;;
12880;SDS011;6508;53.786;9.996;2023-03-23T02:59:44;24.17;;;15.10;;
12880;SDS011;6508;53.786;9.996;2023-03-23T03:02:12;21.55;;;14.68;;
12880;SDS011;6508;53.786;9.996;2023-03-23T03:04:41;23.45;;;15.02;;
12880;SDS011;6508;53.786;9.996;2023-03-23T03:10:18;22.75;;;15.07;;
12880;SDS011;6508;53.786;9.996;2023-03-23T03:12:50;23.95;;;15.48;;
12880;SDS011;6508;53.786;9.996;2023-03-23T03:15:22;22.95;;;15.73;;
12880;SDS011;6508;53.786;9.996;2023-03-23T03:17:55;25.65;;;15.93;;
12880;SDS011;6508;53.786;9.996;2023-03-23T03:20:25;22.38;;;15.15;;
12880;SDS011;6508;53.786;9.996;2023-03-23T03:22:54;23.30;;;15.52;;
12880;SDS011;6508;53.786;9.996;2023-03-23T03:25:23;25.42;;;16.27;;
12880;SDS011;6508;53.786;9.996;2023-03-23T03:27:54;23.45;;;15.82;;
12880;SDS011;6508;53.786;9.996;2023-03-23T03:30:35;20.00;;;15.50;;
12880;SDS011;6508;53.786;9.996;2023-03-23T03:33:04;22.67;;;16.55;;
12880;SDS011;6508;53.786;9.996;2023-03-23T03:35:31;23.92;;;15.18;;
12880;SDS011;6508;53.786;9.996;2023-03-23T03:38:05;23.88;;;16.60;;
12880;SDS011;6508;53.786;9.996;2023-03-23T03:40:33;22.30;;;16.13;;
12880;SDS011;6508;53.786;9.996;2023-03-23T03:43:00;25.23;;;16.17;;
12880;SDS011;6508;53.786;9.996;2023-03-23T03:45:27;22.60;;;15.75;;
12880;SDS011;6508;53.786;9.996;2023-03-23T03:47:54;20.88;;;15.15;;
12880;SDS011;6508;53.786;9.996;2023-03-23T03:50:21;22.55;;;15.52;;
12880;SDS011;6508;53.786;9.996;2023-03-23T03:52:48;23.67;;;16.08;;
12880;SDS011;6508;53.786;9.996;2023-03-23T03:55:17;23.13;;;16.13;;
12880;SDS011;6508;53.786;9.996;2023-03-23T03:57:46;25.67;;;16.23;;
12880;SDS011;6508;53.786;9.996;2023-03-23T04:00:36;24.45;;;16.60;;
12880;SDS011;6508;53.786;9.996;2023-03-23T04:03:04;22.15;;;16.20;;
12880;SDS011;6508;53.786;9.996;2023-03-23T04:05:46;25.55;;;17.10;;
12880;SDS011;6508;53.786;9.996;2023-03-23T04:08:13;22.15;;;16.88;;
12880;SDS011;6508;53.786;9.996;2023-03-23T04:10:43;22.15;;;16.40;;
12880;SDS011;6508;53.786;9.996;2023-03-23T04:13:11;23.52;;;17.40;;
12880;SDS011;6508;53.786;9.996;2023-03-23T04:15:57;25.83;;;17.58;;
12880;SDS011;6508;53.786;9.996;2023-03-23T04:18:24;25.38;;;17.10;;
12880;SDS011;6508;53.786;9.996;2023-03-23T04:20:52;22.45;;;15.98;;
12880;SDS011;6508;53.786;9.996;2023-03-23T04:23:24;21.73;;;15.73;;
12880;SDS011;6508;53.786;9.996;2023-03-23T04:25:53;25.55;;;17.60;;
12880;SDS011;6508;53.786;9.996;2023-03-23T04:28:24;23.60;;;17.80;;
12880;SDS011;6508;53.786;9.996;2023-03-23T04:31:14;28.30;;;17.73;;
12880;SDS011;6508;53.786;9.996;2023-03-23T04:33:45;26.65;;;17.42;;
12880;SDS011;6508;53.786;9.996;2023-03-23T04:36:13;29.60;;;18.15;;
12880;SDS011;6508;53.786;9.996;2023-03-23T04:38:52;25.83;;;17.27;;
12880;SDS011;6508;53.786;9.996;2023-03-23T04:41:24;26.67;;;17.20;;
12880;SDS011;6508;53.786;9.996;2023-03-23T04:44:01;28.70;;;17.05;;
12880;SDS011;6508;53.786;9.996;2023-03-23T04:46:34;28.10;;;17.50;;
12880;SDS011;6508;53.786;9.996;2023-03-23T04:49:07;24.73;;;17.45;;
12880;SDS011;6508;53.786;9.996;2023-03-23T04:51:37;25.80;;;17.23;;
12880;SDS011;6508;53.786;9.996;2023-03-23T04:54:15;26.25;;;17.77;;
12880;SDS011;6508;53.786;9.996;2023-03-23T04:56:49;25.38;;;18.52;;
12880;SDS011;6508;53.786;9.996;2023-03-23T04:59:16;24.15;;;17.33;;
12880;SDS011;6508;53.786;9.996;2023-03-23T05:01:53;25.15;;;17.80;;
12880;SDS011;6508;53.786;9.996;2023-03-23T05:04:22;23.75;;;16.27;;
12880;SDS011;6508;53.786;9.996;2023-03-23T05:07:04;26.50;;;17.92;;
12880;SDS011;6508;53.786;9.996;2023-03-23T05:09:37;23.15;;;17.20;;
12880;SDS011;6508;53.786;9.996;2023-03-23T05:12:05;25.25;;;17.48;;
12880;SDS011;6508;53.786;9.996;2023-03-23T05:14:40;23.10;;;16.52;;
12880;SDS011;6508;53.786;9.996;2023-03-23T05:17:10;26.92;;;17.13;;
12880;SDS011;6508;53.786;9.996;2023-03-23T05:19:37;24.52;;;17.33;;
12880;SDS011;6508;53.786;9.996;2023-03-23T05:22:20;23.13;;;17.23;;
12880;SDS011;6508;53.786;9.996;2023-03-23T05:24:49;25.70;;;16.95;;
12880;SDS011;6508;53.786;9.996;2023-03-23T05:27:19;24.67;;;16.40;;
12880;SDS011;6508;53.786;9.996;2023-03-23T05:29:47;21.45;;;16.60;;
12880;SDS011;6508;53.786;9.996;2023-03-23T05:32:14;28.85;;;17.80;;
12880;SDS011;6508;53.786;9.996;2023-03-23T05:34:42;25.98;;;17.73;;
12880;SDS011;6508;53.786;9.996;2023-03-23T05:37:09;25.45;;;17.25;;
12880;SDS011;6508;53.786;9.996;2023-03-23T05:39:56;25.08;;;17.27;;
12880;SDS011;6508;53.786;9.996;2023-03-23T05:42:40;24.73;;;16.73;;
12880;SDS011;6508;53.786;9.996;2023-03-23T05:45:15;23.85;;;17.63;;
12880;SDS011;6508;53.786;9.996;2023-03-23T05:47:44;27.30;;;18.27;;
12880;SDS011;6508;53.786;9.996;2023-03-23T05:50:17;26.80;;;17.45;;
12880;SDS011;6508;53.786;9.996;2023-03-23T05:52:44;24.88;;;16.92;;
12880;SDS011;6508;53.786;9.996;2023-03-23T05:55:13;24.10;;;17.58;;
12880;SDS011;6508;53.786;9.996;2023-03-23T05:57:44;25.33;;;17.90;;
12880;SDS011;6508;53.786;9.996;2023-03-23T06:00:24;24.63;;;18.00;;
12880;SDS011;6508;53.786;9.996;2023-03-23T06:03:01;23.88;;;17.33;;
12880;SDS011;6508;53.786;9.996;2023-03-23T06:05:35;25.88;;;17.50;;
12880;SDS011;6508;53.786;9.996;2023-03-23T06:08:02;24.35;;;16.20;;
12880;SDS011;6508;53.786;9.996;2023-03-23T06:10:29;23.80;;;16.60;;
12880;SDS011;6508;53.786;9.996;2023-03-23T06:13:02;23.63;;;16.10;;
12880;SDS011;6508;53.786;9.996;2023-03-23T06:15:39;26.88;;;17.58;;
12880;SDS011;6508;53.786;9.996;2023-03-23T06:18:29;24.95;;;16.35;;
12880;SDS011;6508;53.786;9.996;2023-03-23T06:21:13;26.30;;;17.52;;
12880;SDS011;6508;53.786;9.996;2023-03-23T06:23:52;26.85;;;16.33;;
12880;SDS011;6508;53.786;9.996;2023-03-23T06:26:28;20.55;;;16.23;;
12880;SDS011;6508;53.786;9.996;2023-03-23T06:29:01;20.98;;;14.95;;
12880;SDS011;6508;53.786;9.996;2023-03-23T06:31:30;20.27;;;14.82;;
12880;SDS011;6508;53.786;9.996;2023-03-23T06:34:01;22.20;;;14.35;;
12880;SDS011;6508;53.786;9.996;2023-03-23T06:36:51;22.65;;;16.00;;
12880;SDS011;6508;53.786;9.996;2023-03-23T06:39:28;20.10;;;14.43;;
12880;SDS011;6508;53.786;9.996;2023-03-23T06:42:08;16.52;;;13.20;;
12880;SDS011;6508;53.786;9.996;2023-03-23T06:44:40;17.80;;;14.68;;
12880;SDS011;6508;53.786;9.996;2023-03-23T06:47:07;17.55;;;13.73;;
12880;SDS011;6508;53.786;9.996;2023-03-23T06:49:36;16.50;;;13.15;;
12880;SDS011;6508;53.786;9.996;2023-03-23T06:52:17;17.65;;;12.43;;
12880;SDS011;6508;53.786;9.996;2023-03-23T06:54:44;13.77;;;11.48;;
12880;SDS011;6508;53.786;9.996;2023-03-23T06:57:12;12.70;;;10.93;;
12880;SDS011;6508;53.786;9.996;2023-03-23T06:59:43;12.93;;;10.20;;
12880;SDS011;6508;53.786;9.996;2023-03-23T07:02:10;13.10;;;10.05;;
12880;SDS011;6508;53.786;9.996;2023-03-23T07:04:38;12.93;;;9.23;;
12880;SDS011;6508;53.786;9.996;2023-03-23T07:07:10;11.23;;;9.15;;
12880;SDS011;6508;53.786;9.996;2023-03-23T07:09:48;9.60;;;8.68;;
12880;SDS011;6508;53.786;9.996;2023-03-23T07:12:19;9.10;;;8.20;;
12880;SDS011;6508;53.786;9.996;2023-03-23T07:14:49;8.63;;;7.82;;
12880;SDS011;6508;53.786;9.996;2023-03-23T07:17:17;9.23;;;8.10;;
12880;SDS011;6508;53.786;9.996;2023-03-23T07:20:04;9.32;;;8.30;;
12880;SDS011;6508;53.786;9.996;2023-03-23T07:22:32;8.15;;;7.35;;
12880;SDS011;6508;53.786;9.996;2023-03-23T07:25:07;9.25;;;8.10;;
12880;SDS011;6508;53.786;9.996;2023-03-23T07:27:46;8.40;;;7.57;;
12880;SDS011;6508;53.786;9.996;2023-03-23T07:30:16;7.45;;;6.75;;
12880;SDS011;6508;53.786;9.996;2023-03-23T07:32:43;9.50;;;7.45;;
12880;SDS011;6508;53.786;9.996;2023-03-23T07:35:10;7.38;;;6.72;;
12880;SDS011;6508;53.786;9.996;2023-03-23T07:37:58;7.05;;;6.45;;
12880;SDS011;6508;53.786;9.996;2023-03-23T07:40:26;7.72;;;6.90;;
12880;SDS011;6508;53.786;9.996;2023-03-23T07:42:58;7.75;;;6.88;;
12880;SDS011;6508;53.786;9.996;2023-03-23T07:45:35;7.30;;;6.68;;
12880;SDS011;6508;53.786;9.996;2023-03-23T07:48:02;7.25;;;6.63;;
12880;SDS011;6508;53.786;9.996;2023-03-23T07:50:29;7.22;;;6.05;;
12880;SDS011;6508;53.786;9.996;2023-03-23T07:52:58;7.55;;;6.80;;
12880;SDS011;6508;53.786;9.996;2023-03-23T07:55:27;7.78;;;5.63;;
12880;SDS011;6508;53.786;9.996;2023-03-23T07:58:01;6.05;;;5.53;;
12880;SDS011;6508;53.786;9.996;2023-03-23T08:00:28;5.63;;;5.05;;
12880;SDS011;6508;53.786;9.996;2023-03-23T08:02:58;5.82;;;5.20;;
12880;SDS011;6508;53.786;9.996;2023-03-23T08:05:28;4.78;;;4.40;;
12880;SDS011;6508;53.786;9.996;2023-03-23T08:08:13;4.45;;;4.05;;
12880;SDS011;6508;53.786;9.996;2023-03-23T08:11:07;4.13;;;3.42;;
12880;SDS011;6508;53.786;9.996;2023-03-23T08:13:53;6.57;;;3.30;;
12880;SDS011;6508;53.786;9.996;2023-03-23T08:16:40;4.05;;;3.63;;
12880;SDS011;6508;53.786;9.996;2023-03-23T08:19:35;3.20;;;2.88;;
12880;SDS011;6508;53.786;9.996;2023-03-23T08:22:37;3.42;;;3.22;;
12880;SDS011;6508;53.786;9.996;2023-03-23T08:25:24;3.28;;;2.97;;
12880;SDS011;6508;53.786;9.996;2023-03-23T08:28:19;2.60;;;2.40;;
12880;SDS011;6508;53.786;9.996;2023-03-23T08:31:18;2.55;;;2.20;;
12880;SDS011;6508;53.786;9.996;2023-03-23T08:33:57;2.13;;;1.90;;
12880;SDS011;6508;53.786;9.996;2023-03-23T08:36:48;2.67;;;1.92;;
12880;SDS011;6508;53.786;9.996;2023-03-23T08:39:50;2.30;;;2.05;;
12880;SDS011;6508;53.786;9.996;2023-03-23T08:42:36;2.90;;;1.98;;
12880;SDS011;6508;53.786;9.996;2023-03-23T08:45:10;5.50;;;2.13;;
12880;SDS011;6508;53.786;9.996;2023-03-23T08:48:09;2.50;;;1.80;;
12880;SDS011;6508;53.786;9.996;2023-03-23T08:50:50;5.00;;;1.92;;
12880;SDS011;6508;53.786;9.996;2023-03-23T08:53:57;1.58;;;1.48;;
12880;SDS011;6508;53.786;9.996;2023-03-23T08:56:42;2.33;;;1.50;;
12880;SDS011;6508;53.786;9.996;2023-03-23T08:59:28;5.93;;;1.75;;
12880;SDS011;6508;53.786;9.996;2023-03-23T09:02:30;4.70;;;1.80;;
12880;SDS011;6508;53.786;9.996;2023-03-23T09:05:20;2.80;;;2.35;;
12880;SDS011;6508;53.786;9.996;2023-03-23T09:08:03;3.35;;;2.08;;
12880;SDS011;6508;53.786;9.996;2023-03-23T09:10:31;5.40;;;1.83;;
12880;SDS011;6508;53.786;9.996;2023-03-23T09:12:58;4.43;;;2.78;;
12880;SDS011;6508;53.786;9.996;2023-03-23T09:15:25;5.03;;;2.20;;
12880;SDS011;6508;53.786;9.996;2023-03-23T09:17:52;3.33;;;1.92;;
12880;SDS011;6508;53.786;9.996;2023-03-23T09:20:21;4.95;;;1.92;;
12880;SDS011;6508;53.786;9.996;2023-03-23T09:22:49;1.92;;;1.80;;
12880;SDS011;6508;53.786;9.996;2023-03-23T09:25:17;4.78;;;2.45;;
12880;SDS011;6508;53.786;9.996;2023-03-23T09:27:49;4.10;;;2.53;;
12880;SDS011;6508;53.786;9.996;2023-03-23T09:30:19;2.47;;;1.98;;
12880;SDS011;6508;53.786;9.996;2023-03-23T09:32:47;7.03;;;2.83;;
12880;SDS011;6508;53.786;9.996;2023-03-23T09:35:14;5.80;;;2.80;;
12880;SDS011;6508;53.786;9.996;2023-03-23T09:37:42;6.38;;;3.00;;
12880;SDS011;6508;53.786;9.996;2023-03-23T09:40:11;5.85;;;2.88;;
12880;SDS011;6508;53.786;9.996;2023-03-23T09:42:54;4.05;;;2.70;;
12880;SDS011;6508;53.786;9.996;2023-03-23T09:45:27;3.72;;;2.80;;
12880;SDS011;6508;53.786;9.996;2023-03-23T09:48:03;7.05;;;3.35;;
12880;SDS011;6508;53.786;9.996;2023-03-23T09:50:35;3.03;;;2.47;;
12880;SDS011;6508;53.786;9.996;2023-03-23T09:53:05;4.07;;;2.90;;
12880;SDS011;6508;53.786;9.996;2023-03-23T09:55:36;3.53;;;3.00;;
12880;SDS011;6508;53.786;9.996;2023-03-23T09:58:08;3.72;;;2.80;;
12880;SDS011;6508;53.786;9.996;2023-03-23T10:00:39;2.75;;;2.55;;
12880;SDS011;6508;53.786;9.996;2023-03-23T10:03:10;4.22;;;2.45;;
12880;SDS011;6508;53.786;9.996;2023-03-23T10:05:41;3.10;;;2.80;;
12880;SDS011;6508;53.786;9.996;2023-03-23T10:08:10;6.00;;;3.00;;
12880;SDS011;6508;53.786;9.996;2023-03-23T10:10:50;6.90;;;2.90;;
12880;SDS011;6508;53.786;9.996;2023-03-23T10:13:27;4.30;;;2.80;;
12880;SDS011;6508;53.786;9.996;2023-03-23T10:16:02;6.00;;;2.70;;
12880;SDS011;6508;53.786;9.996;2023-03-23T10:18:32;6.05;;;3.20;;
12880;SDS011;6508;53.786;9.996;2023-03-23T10:21:03;6.18;;;3.10;;
12880;SDS011;6508;53.786;9.996;2023-03-23T10:26:22;4.10;;;3.10;;
12880;SDS011;6508;53.786;9.996;2023-03-23T10:28:58;3.08;;;2.30;;
12880;SDS011;6508;53.786;9.996;2023-03-23T10:31:28;4.53;;;2.60;;
12880;SDS011;6508;53.786;9.996;2023-03-23T10:33:59;6.95;;;2.65;;
12880;SDS011;6508;53.786;9.996;2023-03-23T10:36:29;5.18;;;2.60;;
12880;SDS011;6508;53.786;9.996;2023-03-23T10:39:00;5.53;;;2.65;;
12880;SDS011;6508;53.786;9.996;2023-03-23T10:41:31;8.57;;;3.00;;
12880;SDS011;6508;53.786;9.996;2023-03-23T10:43:59;3.50;;;3.05;;
12880;SDS011;6508;53.786;9.996;2023-03-23T10:46:29;8.50;;;2.90;;
12880;SDS011;6508;53.786;9.996;2023-03-23T10:49:02;9.27;;;3.05;;
12880;SDS011;6508;53.786;9.996;2023-03-23T10:51:32;4.03;;;3.25;;
12880;SDS011;6508;53.786;9.996;2023-03-23T10:54:02;7.82;;;2.97;;
12880;SDS011;6508;53.786;9.996;2023-03-23T10:56:34;5.30;;;3.10;;
12880;SDS011;6508;53.786;9.996;2023-03-23T10:59:12;3.40;;;3.10;;
12880;SDS011;6508;53.786;9.996;2023-03-23T11:01:41;6.78;;;3.78;;
12880;SDS011;6508;53.786;9.996;2023-03-23T11:04:13;7.70;;;3.85;;
12880;SDS011;6508;53.786;9.996;2023-03-23T11:06:43;7.30;;;3.42;;
12880;SDS011;6508;53.786;9.996;2023-03-23T11:09:12;7.43;;;3.55;;
12880;SDS011;6508;53.786;9.996;2023-03-23T11:11:41;7.15;;;3.90;;
12880;SDS011;6508;53.786;9.996;2023-03-23T11:14:17;4.10;;;3.45;;
12880;SDS011;6508;53.786;9.996;2023-03-23T11:16:49;4.22;;;3.20;;
12880;SDS011;6508;53.786;9.996;2023-03-23T11:19:21;6.30;;;3.72;;
12880;SDS011;6508;53.786;9.996;2023-03-23T11:21:50;3.47;;;3.17;;
12880;SDS011;6508;53.786;9.996;2023-03-23T11:24:17;7.80;;;4.13;;
12880;SDS011;6508;53.786;9.996;2023-03-23T11:26:44;5.10;;;3.42;;
12880;SDS011;6508;53.786;9.996;2023-03-23T11:29:13;6.57;;;3.70;;
12880;SDS011;6508;53.786;9.996;2023-03-23T11:31:43;5.03;;;3.80;;
12880;SDS011;6508;53.786;9.996;2023-03-23T11:34:13;5.47;;;3.90;;
12880;SDS011;6508;53.786;9.996;2023-03-23T11:36:41;5.78;;;3.97;;
12880;SDS011;6508;53.786;9.996;2023-03-23T11:39:20;6.95;;;3.97;;
12880;SDS011;6508;53.786;9.996;2023-03-23T11:41:48;6.57;;;4.00;;
12880;SDS011;6508;53.786;9.996;2023-03-23T11:44:15;7.43;;;4.13;;
12880;SDS011;6508;53.786;9.996;2023-03-23T11:46:46;5.78;;;3.90;;
12880;SDS011;6508;53.786;9.996;2023-03-23T11:49:18;8.90;;;4.07;;
12880;SDS011;6508;53.786;9.996;2023-03-23T11:51:51;7.07;;;4.05;;
12880;SDS011;6508;53.786;9.996;2023-03-23T11:54:24;6.90;;;3.63;;
12880;SDS011;6508;53.786;9.996;2023-03-23T11:56:55;5.85;;;3.70;;
12880;SDS011;6508;53.786;9.996;2023-03-23T11:59:26;6.40;;;3.72;;
12880;SDS011;6508;53.786;9.996;2023-03-23T12:01:56;6.18;;;3.42;;
12880;SDS011;6508;53.786;9.996;2023-03-23T12:04:46;7.63;;;4.07;;
12880;SDS011;6508;53.786;9.996;2023-03-23T12:07:31;11.07;;;3.70;;
12880;SDS011;6508;53.786;9.996;2023-03-23T12:10:08;7.68;;;3.25;;
12880;SDS011;6508;53.786;9.996;2023-03-23T12:12:43;8.27;;;3.95;;
12880;SDS011;6508;53.786;9.996;2023-03-23T12:15:17;7.18;;;3.95;;
12880;SDS011;6508;53.786;9.996;2023-03-23T12:17:51;8.48;;;4.43;;
12880;SDS011;6508;53.786;9.996;2023-03-23T12:20:26;8.20;;;3.20;;
12880;SDS011;6508;53.786;9.996;2023-03-23T12:23:02;8.65;;;3.88;;
12880;SDS011;6508;53.786;9.996;2023-03-23T12:28:31;6.78;;;3.92;;
12880;SDS011;6508;53.786;9.996;2023-03-23T12:31:03;11.30;;;4.60;;
12880;SDS011;6508;53.786;9.996;2023-03-23T12:33:37;10.40;;;4.13;;
12880;SDS011;6508;53.786;9.996;2023-03-23T12:36:16;8.02;;;3.45;;
12880;SDS011;6508;53.786;9.996;2023-03-23T12:38:56;10.45;;;3.83;;
12880;SDS011;6508;53.786;9.996;2023-03-23T12:41:31;7.30;;;4.25;;
12880;SDS011;6508;53.786;9.996;2023-03-23T12:44:03;6.97;;;3.97;;
12880;SDS011;6508;53.786;9.996;2023-03-23T12:46:48;4.38;;;3.97;;
12880;SDS011;6508;53.786;9.996;2023-03-23T12:49:26;5.10;;;3.30;;
12880;SDS011;6508;53.786;9.996;2023-03-23T12:51:57;5.05;;;3.97;;
12880;SDS011;6508;53.786;9.996;2023-03-23T12:54:27;8.32;;;3.60;;
12880;SDS011;6508;53.786;9.996;2023-03-23T12:56:58;8.43;;;4.00;;
12880;SDS011;6508;53.786;9.996;2023-03-23T12:59:29;9.80;;;4.22;;
12880;SDS011;6508;53.786;9.996;2023-03-23T13:02:04;8.15;;;4.25;;
12880;SDS011;6508;53.786;9.996;2023-03-23T13:04:37;9.05;;;4.30;;
12880;SDS011;6508;53.786;9.996;2023-03-23T13:07:05;8.73;;;3.95;;
12880;SDS011;6508;53.786;9.996;2023-03-23T13:09:36;9.90;;;4.38;;
12880;SDS011;6508;53.786;9.996;2023-03-23T13:12:22;6.65;;;3.95;;
12880;SDS011;6508;53.786;9.996;2023-03-23T13:14:52;5.88;;;4.30;;
12880;SDS011;6508;53.786;9.996;2023-03-23T13:17:26;7.30;;;4.38;;
12880;SDS011;6508;53.786;9.996;2023-03-23T13:23:02;7.55;;;4.65;;
12880;SDS011;6508;53.786;9.996;2023-03-23T13:25:38;6.18;;;4.07;;
12880;SDS011;6508;53.786;9.996;2023-03-23T13:28:14;6.13;;;3.70;;
12880;SDS011;6508;53.786;9.996;2023-03-23T13:30:41;5.72;;;3.75;;
12880;SDS011;6508;53.786;9.996;2023-03-23T13:33:20;8.20;;;4.45;;
12880;SDS011;6508;53.786;9.996;2023-03-23T13:35:49;7.32;;;4.55;;
12880;SDS011;6508;53.786;9.996;2023-03-23T13:38:18;5.97;;;4.60;;
12880;SDS011;6508;53.786;9.996;2023-03-23T13:40:48;6.55;;;4.63;;
12880;SDS011;6508;53.786;9.996;2023-03-23T13:43:24;8.40;;;5.32;;
12880;SDS011;6508;53.786;9.996;2023-03-23T13:45:53;8.07;;;5.32;;
12880;SDS011;6508;53.786;9.996;2023-03-23T13:48:22;5.60;;;4.00;;
12880;SDS011;6508;53.786;9.996;2023-03-23T13:50:52;4.70;;;3.25;;
12880;SDS011;6508;53.786;9.996;2023-03-23T13:53:22;3.63;;;3.00;;
12880;SDS011;6508;53.786;9.996;2023-03-23T13:56:04;5.53;;;3.17;;
12880;SDS011;6508;53.786;9.996;2023-03-23T13:58:43;6.03;;;3.10;;
12880;SDS011;6508;53.786;9.996;2023-03-23T14:01:12;3.88;;;2.97;;
12880;SDS011;6508;53.786;9.996;2023-03-23T14:03:42;6.25;;;3.10;;
12880;SDS011;6508;53.786;9.996;2023-03-23T14:06:17;8.13;;;5.00;;
12880;SDS011;6508;53.786;9.996;2023-03-23T14:09:04;6.68;;;3.30;;
12880;SDS011;6508;53.786;9.996;2023-03-23T14:11:44;3.65;;;3.13;;
12880;SDS011;6508;53.786;9.996;2023-03-23T14:14:13;4.75;;;3.47;;
12880;SDS011;6508;53.786;9.996;2023-03-23T14:16:42;8.73;;;3.83;;
12880;SDS011;6508;53.786;9.996;2023-03-23T14:19:14;6.28;;;3.72;;
12880;SDS011;6508;53.786;9.996;2023-03-23T14:21:48;8.20;;;4.13;;
12880;SDS011;6508;53.786;9.996;2023-03-23T14:24:19;5.15;;;3.47;;
12880;SDS011;6508;53.786;9.996;2023-03-23T14:26:48;3.55;;;3.10;;
12880;SDS011;6508;53.786;9.996;2023-03-23T14:29:17;4.43;;;3.78;;
12880;SDS011;6508;53.786;9.996;2023-03-23T14:31:44;6.30;;;3.67;;
12880;SDS011;6508;53.786;9.996;2023-03-23T14:34:18;8.10;;;3.17;;
12880;SDS011;6508;53.786;9.996;2023-03-23T14:36:47;5.20;;;3.28;;
12880;SDS011;6508;53.786;9.996;2023-03-23T14:39:16;6.57;;;3.22;;
12880;SDS011;6508;53.786;9.996;2023-03-23T14:41:46;3.55;;;2.90;;
12880;SDS011;6508;53.786;9.996;2023-03-23T14:44:14;7.72;;;3.10;;
12880;SDS011;6508;53.786;9.996;2023-03-23T14:46:43;6.85;;;2.90;;
12880;SDS011;6508;53.786;9.996;2023-03-23T14:49:11;6.30;;;3.00;;
12880;SDS011;6508;53.786;9.996;2023-03-23T14:51:51;4.88;;;2.72;;
12880;SDS011;6508;53.786;9.996;2023-03-23T14:54:20;6.82;;;2.90;;
12880;SDS011;6508;53.786;9.996;2023-03-23T14:56:49;7.60;;;3.97;;
12880;SDS011;6508;53.786;9.996;2023-03-23T14:59:15;5.78;;;3.33;;
12880;SDS011;6508;53.786;9.996;2023-03-23T15:01:42;5.45;;;2.97;;
12880;SDS011;6508;53.786;9.996;2023-03-23T15:04:11;10.25;;;3.03;;
12880;SDS011;6508;53.786;9.996;2023-03-23T15:06:41;4.85;;;3.05;;
12880;SDS011;6508;53.786;9.996;2023-03-23T15:09:15;4.85;;;2.78;;
12880;SDS011;6508;53.786;9.996;2023-03-23T15:11:50;4.20;;;2.65;;
12880;SDS011;6508;53.786;9.996;2023-03-23T15:14:19;7.10;;;2.85;;
12880;SDS011;6508;53.786;9.996;2023-03-23T15:16:48;4.05;;;2.70;;
12880;SDS011;6508;53.786;9.996;2023-03-23T15:19:18;4.32;;;2.95;;
12880;SDS011;6508;53.786;9.996;2023-03-23T15:21:48;4.65;;;3.03;;
12880;SDS011;6508;53.786;9.996;2023-03-23T15:24:24;5.50;;;3.85;;
12880;SDS011;6508;53.786;9.996;2023-03-23T15:26:53;7.20;;;3.42;;
12880;SDS011;6508;53.786;9.996;2023-03-23T15:29:21;7.25;;;4.00;;
12880;SDS011;6508;53.786;9.996;2023-03-23T15:31:50;4.50;;;3.58;;
12880;SDS011;6508;53.786;9.996;2023-03-23T15:34:19;6.97;;;3.55;;
12880;SDS011;6508;53.786;9.996;2023-03-23T15:36:55;8.45;;;3.78;;
12880;SDS011;6508;53.786;9.996;2023-03-23T15:39:24;7.70;;;3.85;;
12880;SDS011;6508;53.786;9.996;2023-03-23T15:41:51;7.95;;;4.18;;